createdAt,value
2022-12-03T00:01:59.873Z,59.85
2022-12-03T00:04:26.981Z,58.67
2022-12-03T00:06:56.520Z,62.53
2022-12-03T00:09:24.369Z,56.35
2022-12-03T00:11:51.202Z,64.70
2022-12-03T00:14:17.977Z,57.60
2022-12-03T00:16:44.857Z,58.85
2022-12-03T00:19:11.522Z,57.90
2022-12-03T00:21:38.242Z,70.45
2022-12-03T00:24:05.445Z,55.90
2022-12-03T00:26:32.164Z,54.47
2022-12-03T00:28:58.985Z,67.10
2022-12-03T00:31:26.210Z,59.77
2022-12-03T00:33:55.714Z,65.93
2022-12-03T00:36:22.397Z,59.47
2022-12-03T00:38:49.233Z,65.38
2022-12-03T00:41:15.899Z,67.43
2022-12-03T00:43:42.752Z,57.22
2022-12-03T00:46:09.659Z,59.35
2022-12-03T00:48:36.517Z,58.13
2022-12-03T00:51:03.289Z,59.30
2022-12-03T00:53:32.665Z,61.03
2022-12-03T00:56:01.760Z,55.65
2022-12-03T00:58:28.621Z,60.17
2022-12-03T01:00:55.324Z,65.47
2022-12-03T01:03:31.229Z,65.13
2022-12-03T01:06:04.898Z,63.33
2022-12-03T01:08:34.153Z,58.63
2022-12-03T01:11:00.957Z,60.60
2022-12-03T01:13:27.721Z,65.53
2022-12-03T01:16:05.338Z,59.75
2022-12-03T01:18:32.091Z,58.15
2022-12-03T01:20:59.912Z,56.97
2022-12-03T01:23:26.628Z,58.20
2022-12-03T01:25:53.321Z,59.58
2022-12-03T01:28:20.140Z,60.53
2022-12-03T01:31:05.449Z,61.93
2022-12-03T01:33:32.210Z,59.90
2022-12-03T01:35:58.913Z,76.00
2022-12-03T01:38:25.676Z,60.03
2022-12-03T01:40:54.730Z,67.13
2022-12-03T01:43:23.942Z,71.25
2022-12-03T01:45:50.714Z,59.22
2022-12-03T01:48:17.683Z,54.93
2022-12-03T01:50:45.998Z,69.25
2022-12-03T01:53:18.280Z,69.30
2022-12-03T01:55:48.899Z,58.80
2022-12-03T01:58:16.840Z,66.53
2022-12-03T02:03:29.237Z,54.28
2022-12-03T02:05:57.081Z,52.65
2022-12-03T02:08:40.107Z,57.22
2022-12-03T02:11:16.668Z,66.30
2022-12-03T02:13:44.349Z,61.38
2022-12-03T02:18:37.968Z,55.55
2022-12-03T02:21:45.312Z,63.90
2022-12-03T02:24:27.208Z,65.07
2022-12-03T02:26:53.973Z,60.40
2022-12-03T02:29:22.297Z,60.07
2022-12-03T02:31:49.151Z,67.18
2022-12-03T02:34:42.222Z,69.65
2022-12-03T02:37:14.617Z,77.55
2022-12-03T02:39:45.978Z,67.70
2022-12-03T02:42:31.711Z,70.10
2022-12-03T02:45:05.441Z,68.85
2022-12-03T02:47:40.444Z,65.13
2022-12-03T02:50:09.553Z,69.10
2022-12-03T02:52:37.076Z,74.13
2022-12-03T02:55:06.715Z,63.40
2022-12-03T02:57:36.054Z,70.00
2022-12-03T03:00:03.855Z,74.88
2022-12-03T03:02:30.777Z,78.38
2022-12-03T03:04:57.971Z,68.40
2022-12-03T03:07:25.006Z,71.50
2022-12-03T03:09:51.860Z,59.85
2022-12-03T03:12:18.653Z,88.20
2022-12-03T03:14:45.590Z,91.40
2022-12-03T03:17:13.361Z,81.00
2022-12-03T03:22:06.893Z,70.70
2022-12-03T03:24:33.911Z,63.77
2022-12-03T03:27:00.584Z,64.10
2022-12-03T03:29:27.605Z,64.60
2022-12-03T03:31:54.647Z,64.43
2022-12-03T03:34:21.652Z,59.33
2022-12-03T03:36:49.575Z,64.85
2022-12-03T03:39:16.353Z,60.92
2022-12-03T03:41:45.923Z,61.53
2022-12-03T03:44:13.974Z,64.72
2022-12-03T03:46:42.708Z,59.15
2022-12-03T03:49:10.585Z,60.22
2022-12-03T03:51:38.042Z,62.92
2022-12-03T03:54:05.832Z,58.97
2022-12-03T03:56:34.957Z,65.00
2022-12-03T03:59:02.806Z,58.15
2022-12-03T04:01:30.520Z,66.35
2022-12-03T04:04:00.808Z,61.65
2022-12-03T04:06:28.083Z,60.92
2022-12-03T04:08:56.511Z,59.85
2022-12-03T04:11:42.253Z,61.17
2022-12-03T04:14:08.998Z,61.65
2022-12-03T04:16:35.729Z,59.60
2022-12-03T04:19:02.459Z,57.17
2022-12-03T04:21:47.843Z,62.70
2022-12-03T04:24:14.661Z,58.67
2022-12-03T04:27:02.051Z,59.67
2022-12-03T04:29:28.805Z,55.10
2022-12-03T04:32:14.059Z,52.00
2022-12-03T04:34:59.268Z,58.33
2022-12-03T04:37:27.249Z,56.50
2022-12-03T04:39:54.055Z,60.33
2022-12-03T04:42:20.921Z,56.60
2022-12-03T04:44:47.830Z,60.97
2022-12-03T04:47:23.532Z,54.22
2022-12-03T04:49:52.553Z,53.30
2022-12-03T04:52:20.158Z,62.25
2022-12-03T04:54:47.039Z,61.70
2022-12-03T04:57:15.041Z,58.38
2022-12-03T04:59:41.762Z,55.15
2022-12-03T05:02:10.961Z,62.38
2022-12-03T05:04:37.685Z,56.10
2022-12-03T05:07:04.494Z,59.00
2022-12-03T05:09:31.249Z,58.67
2022-12-03T05:11:57.933Z,54.87
2022-12-03T05:14:24.599Z,67.07
2022-12-03T05:16:51.520Z,56.60
2022-12-03T05:19:18.278Z,52.58
2022-12-03T05:21:44.995Z,55.10
2022-12-03T05:24:11.705Z,58.83
2022-12-03T05:26:38.393Z,55.37
2022-12-03T05:29:05.134Z,52.60
2022-12-03T05:31:31.955Z,54.07
2022-12-03T05:33:58.685Z,53.38
2022-12-03T05:36:25.693Z,51.80
2022-12-03T05:38:52.522Z,44.60
2022-12-03T05:41:38.794Z,56.10
2022-12-03T05:44:05.644Z,56.53
2022-12-03T05:46:32.996Z,57.92
2022-12-03T05:48:59.991Z,47.97
2022-12-03T05:51:26.849Z,53.70
2022-12-03T05:53:53.563Z,56.63
2022-12-03T05:56:20.297Z,49.40
2022-12-03T05:58:47.100Z,50.28
2022-12-03T06:01:13.850Z,46.20
2022-12-03T06:03:40.684Z,41.50
2022-12-03T06:06:07.596Z,46.47
2022-12-03T06:08:34.422Z,47.23
2022-12-03T06:11:01.243Z,39.73
2022-12-03T06:13:31.037Z,39.07
2022-12-03T06:15:57.954Z,41.15
2022-12-03T06:18:24.892Z,45.13
2022-12-03T06:20:51.687Z,37.35
2022-12-03T06:23:18.714Z,42.80
2022-12-03T06:25:45.515Z,42.47
2022-12-03T06:28:12.583Z,38.30
2022-12-03T06:30:39.325Z,38.35
2022-12-03T06:33:08.163Z,37.37
2022-12-03T06:35:34.912Z,33.70
2022-12-03T06:38:02.725Z,37.63
2022-12-03T06:40:29.461Z,35.95
2022-12-03T06:42:56.475Z,35.28
2022-12-03T06:45:23.207Z,39.97
2022-12-03T06:47:52.300Z,39.57
2022-12-03T06:50:19.093Z,32.47
2022-12-03T06:52:45.778Z,37.93
2022-12-03T06:55:12.752Z,33.20
2022-12-03T06:57:39.548Z,34.97
2022-12-03T07:00:09.317Z,35.33
2022-12-03T07:02:36.695Z,36.00
2022-12-03T07:05:04.310Z,34.97
2022-12-03T07:07:31.236Z,34.13
2022-12-03T07:09:58.480Z,35.08
2022-12-03T07:12:25.332Z,36.30
2022-12-03T07:14:52.329Z,30.87
2022-12-03T07:17:20.427Z,31.73
2022-12-03T07:19:47.195Z,31.45
2022-12-03T07:22:15.301Z,33.67
2022-12-03T07:24:42.039Z,33.45
2022-12-03T07:27:08.840Z,33.73
2022-12-03T07:29:35.629Z,38.93
2022-12-03T07:32:02.394Z,30.60
2022-12-03T07:34:30.670Z,35.60
2022-12-03T07:37:00.327Z,33.13
2022-12-03T07:39:27.175Z,31.48
2022-12-03T07:41:53.986Z,34.37
2022-12-03T07:44:20.721Z,36.77
2022-12-03T07:46:47.597Z,34.97
2022-12-03T07:49:14.641Z,34.97
2022-12-03T07:51:42.976Z,52.10
2022-12-03T07:54:09.728Z,40.28
2022-12-03T07:56:42.771Z,33.87
2022-12-03T07:59:17.427Z,33.47
2022-12-03T08:01:46.093Z,30.08
2022-12-03T08:04:14.886Z,29.65
2022-12-03T08:06:42.552Z,32.90
2022-12-03T08:09:14.594Z,31.35
2022-12-03T08:11:47.349Z,29.40
2022-12-03T08:14:16.704Z,29.23
2022-12-03T08:16:47.577Z,32.83
2022-12-03T08:19:17.250Z,29.02
2022-12-03T08:21:44.416Z,29.33
2022-12-03T08:24:15.742Z,29.52
2022-12-03T08:26:45.637Z,33.22
2022-12-03T08:29:15.241Z,43.10
2022-12-03T08:31:42.829Z,35.50
2022-12-03T08:36:42.668Z,27.63
2022-12-03T08:39:35.933Z,34.38
2022-12-03T08:42:58.828Z,34.42
2022-12-03T08:45:40.136Z,33.80
2022-12-03T08:48:47.035Z,33.70
2022-12-03T08:51:21.836Z,30.48
2022-12-03T08:53:58.163Z,35.30
2022-12-03T08:56:30.020Z,31.60
2022-12-03T08:59:17.448Z,38.17
2022-12-03T09:01:47.053Z,34.72
2022-12-03T09:04:35.078Z,36.65
2022-12-03T09:07:02.131Z,33.85
2022-12-03T09:09:28.980Z,36.10
2022-12-03T09:11:56.282Z,38.60
2022-12-03T09:14:23.646Z,32.85
2022-12-03T09:16:55.581Z,29.50
2022-12-03T09:19:27.532Z,33.20
2022-12-03T09:21:55.142Z,36.75
2022-12-03T09:26:49.030Z,150.93
2022-12-03T09:29:16.035Z,399.92
2022-12-03T09:31:42.884Z,186.88
2022-12-03T09:34:10.001Z,75.93
2022-12-03T09:36:36.814Z,45.50
2022-12-03T09:39:03.809Z,45.30
2022-12-03T09:41:31.624Z,38.58
2022-12-03T09:44:04.378Z,35.10
2022-12-03T09:46:31.710Z,37.50
2022-12-03T09:48:58.568Z,39.35
2022-12-03T09:51:30.166Z,36.93
2022-12-03T09:54:02.947Z,36.03
2022-12-03T09:56:29.948Z,38.67
2022-12-03T09:58:56.746Z,37.08
2022-12-03T10:01:27.874Z,38.37
2022-12-03T10:03:56.788Z,35.30
2022-12-03T10:06:24.376Z,38.13
2022-12-03T10:08:55.586Z,41.10
2022-12-03T10:11:25.124Z,35.42
2022-12-03T10:13:54.325Z,37.35
2022-12-03T10:16:23.200Z,41.53
2022-12-03T10:18:52.765Z,33.95
2022-12-03T10:21:27.461Z,37.45
2022-12-03T10:24:21.627Z,33.92
2022-12-03T10:26:50.669Z,38.35
2022-12-03T10:29:18.990Z,38.10
2022-12-03T10:31:49.099Z,40.72
2022-12-03T10:34:25.099Z,41.13
2022-12-03T10:37:22.567Z,39.72
2022-12-03T10:40:11.302Z,37.47
2022-12-03T10:42:40.741Z,32.17
2022-12-03T10:45:08.776Z,37.97
2022-12-03T10:47:35.883Z,36.53
2022-12-03T10:50:07.052Z,35.55
2022-12-03T10:52:34.992Z,39.70
2022-12-03T10:55:02.281Z,37.45
2022-12-03T10:57:30.100Z,35.05
2022-12-03T11:00:05.772Z,37.00
2022-12-03T11:02:33.934Z,39.80
2022-12-03T11:05:00.929Z,37.83
2022-12-03T11:07:47.800Z,42.97
2022-12-03T11:10:19.438Z,50.72
2022-12-03T11:13:26.424Z,45.15
2022-12-03T11:15:53.714Z,49.00
2022-12-03T11:18:41.641Z,39.25
2022-12-03T11:21:13.325Z,35.33
2022-12-03T11:23:48.798Z,34.90
2022-12-03T11:26:18.931Z,40.58
2022-12-03T11:28:47.740Z,34.42
2022-12-03T11:31:50.301Z,39.10
2022-12-03T11:34:40.060Z,37.65
2022-12-03T11:37:15.399Z,43.30
2022-12-03T11:39:48.276Z,39.75
2022-12-03T11:42:27.070Z,41.03
2022-12-03T11:45:32.359Z,34.78
2022-12-03T11:48:02.295Z,37.00
2022-12-03T11:50:40.387Z,41.35
2022-12-03T11:53:22.092Z,35.53
2022-12-03T11:56:06.640Z,39.42
2022-12-03T11:58:48.939Z,37.72
2022-12-03T12:01:16.079Z,39.47
2022-12-03T12:03:50.697Z,40.40
2022-12-03T12:06:20.494Z,36.00
2022-12-03T12:08:59.136Z,39.75
2022-12-03T12:11:27.277Z,42.17
2022-12-03T12:14:03.819Z,39.58
2022-12-03T12:16:50.518Z,40.90
2022-12-03T12:19:42.663Z,38.35
2022-12-03T12:22:20.604Z,38.95
2022-12-03T12:25:01.800Z,40.85
2022-12-03T12:27:49.327Z,37.97
2022-12-03T12:30:19.364Z,38.42
2022-12-03T12:33:14.248Z,38.55
2022-12-03T12:35:42.498Z,39.15
2022-12-03T12:38:11.306Z,36.13
2022-12-03T12:40:42.551Z,35.35
2022-12-03T12:43:16.470Z,34.83
2022-12-03T12:45:46.078Z,37.70
2022-12-03T12:48:34.483Z,38.83
2022-12-03T12:51:12.170Z,26.75
2022-12-03T12:53:42.646Z,34.35
2022-12-03T12:56:19.489Z,27.98
2022-12-03T12:58:46.263Z,32.22
2022-12-03T13:01:21.258Z,34.30
2022-12-03T13:03:51.419Z,31.83
2022-12-03T13:06:21.468Z,37.53
2022-12-03T13:08:50.194Z,30.08
2022-12-03T13:11:25.792Z,33.38
2022-12-03T13:13:53.558Z,31.70
2022-12-03T13:16:24.873Z,32.67
2022-12-03T13:18:59.711Z,35.60
2022-12-03T13:21:41.297Z,34.15
2022-12-03T13:24:38.718Z,33.90
2022-12-03T13:27:23.361Z,25.27
2022-12-03T13:30:00.765Z,31.73
2022-12-03T13:32:30.897Z,31.43
2022-12-03T13:35:36.014Z,29.13
2022-12-03T13:38:15.431Z,32.00
2022-12-03T13:40:42.494Z,33.95
2022-12-03T13:43:18.617Z,35.10
2022-12-03T13:45:49.618Z,33.53
2022-12-03T13:48:28.553Z,32.83
2022-12-03T13:50:56.978Z,33.22
2022-12-03T13:53:33.968Z,37.83
2022-12-03T13:56:22.114Z,33.72
2022-12-03T13:58:48.948Z,34.15
2022-12-03T14:01:15.715Z,34.70
2022-12-03T14:03:43.530Z,32.97
2022-12-03T14:06:10.473Z,38.45
2022-12-03T14:08:37.474Z,56.78
2022-12-03T14:11:04.594Z,38.30
2022-12-03T14:13:32.417Z,35.08
2022-12-03T14:15:59.349Z,33.95
2022-12-03T14:18:26.340Z,35.38
2022-12-03T14:20:54.196Z,35.65
2022-12-03T14:23:21.150Z,42.70
2022-12-03T14:25:49.017Z,38.53
2022-12-03T14:28:21.841Z,34.45
2022-12-03T14:30:51.742Z,36.88
2022-12-03T14:33:19.058Z,34.55
2022-12-03T14:35:48.985Z,37.92
2022-12-03T14:38:15.714Z,35.67
2022-12-03T14:40:42.562Z,35.08
2022-12-03T14:43:11.313Z,37.83
2022-12-03T14:45:38.118Z,38.28
2022-12-03T14:48:06.085Z,40.40
2022-12-03T14:50:32.890Z,35.83
2022-12-03T14:52:59.605Z,38.23
2022-12-03T14:55:33.677Z,39.63
2022-12-03T14:58:00.599Z,36.75
2022-12-03T15:00:29.627Z,40.53
2022-12-03T15:02:56.687Z,35.45
2022-12-03T15:05:28.589Z,38.03
2022-12-03T15:07:56.207Z,44.00
2022-12-03T15:10:25.445Z,38.25
2022-12-03T15:12:54.174Z,32.33
2022-12-03T15:15:20.927Z,39.42
2022-12-03T15:17:47.611Z,31.83
2022-12-03T15:20:16.585Z,37.28
2022-12-03T15:22:43.308Z,35.72
2022-12-03T15:25:10.287Z,33.33
2022-12-03T15:27:36.995Z,36.03
2022-12-03T15:30:05.082Z,38.90
2022-12-03T15:32:31.975Z,39.95
2022-12-03T15:34:58.856Z,38.70
2022-12-03T15:37:27.987Z,43.90
2022-12-03T15:39:55.115Z,39.53
2022-12-03T15:42:22.124Z,43.03
2022-12-03T15:44:49.971Z,39.43
2022-12-03T15:47:16.690Z,35.58
2022-12-03T15:49:45.061Z,34.28
2022-12-03T15:52:11.792Z,41.75
2022-12-03T15:54:39.669Z,35.03
2022-12-03T15:57:07.390Z,38.42
2022-12-03T16:00:01.388Z,42.47
2022-12-03T16:02:33.855Z,46.43
2022-12-03T16:05:06.533Z,47.67
2022-12-03T16:07:33.450Z,42.78
2022-12-03T16:10:01.973Z,37.70
2022-12-03T16:12:39.567Z,50.40
2022-12-03T16:15:10.555Z,39.63
2022-12-03T16:17:38.393Z,39.22
2022-12-03T16:20:06.659Z,40.10
2022-12-03T16:22:34.406Z,41.70
2022-12-03T16:27:27.936Z,46.22
2022-12-03T16:29:56.545Z,36.93
2022-12-03T16:32:25.888Z,43.65
2022-12-03T16:34:52.616Z,38.50
2022-12-03T16:37:20.715Z,41.83
2022-12-03T16:39:48.355Z,41.85
2022-12-03T16:44:59.525Z,47.30
2022-12-03T16:47:32.070Z,50.53
2022-12-03T16:50:01.753Z,50.47
2022-12-03T16:52:31.783Z,42.17
2022-12-03T16:54:58.703Z,46.40
2022-12-03T16:57:31.934Z,41.10
2022-12-03T17:00:00.856Z,41.08
2022-12-03T17:02:32.566Z,42.22
2022-12-03T17:04:59.437Z,41.00
2022-12-03T17:07:26.268Z,48.60
2022-12-03T17:09:53.371Z,48.53
2022-12-03T17:12:20.248Z,46.88
2022-12-03T17:14:47.012Z,52.23
2022-12-03T17:17:13.700Z,63.30
2022-12-03T17:19:40.388Z,59.47
2022-12-03T17:22:07.127Z,43.03
2022-12-03T17:24:37.513Z,45.27
2022-12-03T17:27:06.265Z,47.65
2022-12-03T17:29:33.077Z,58.78
2022-12-03T17:32:00.967Z,58.20
2022-12-03T17:34:27.792Z,51.45
2022-12-03T17:36:57.725Z,65.37
2022-12-03T17:39:24.584Z,55.20
2022-12-03T17:41:51.278Z,47.30
2022-12-03T17:44:21.050Z,44.22
2022-12-03T17:46:48.353Z,52.38
2022-12-03T17:49:15.145Z,48.58
2022-12-03T17:51:43.359Z,41.57
2022-12-03T17:54:12.402Z,55.90
2022-12-03T17:56:43.456Z,44.85
2022-12-03T17:59:12.027Z,43.63
2022-12-03T18:01:39.497Z,45.38
2022-12-03T18:04:06.322Z,39.22
2022-12-03T18:06:33.173Z,39.88
2022-12-03T18:09:00.229Z,43.43
2022-12-03T18:11:27.114Z,50.15
2022-12-03T18:13:53.860Z,51.58
2022-12-03T18:16:20.688Z,45.03
2022-12-03T18:18:48.632Z,48.13
2022-12-03T18:21:18.014Z,46.65
2022-12-03T18:23:44.931Z,43.20
2022-12-03T18:26:12.121Z,45.05
2022-12-03T18:28:39.915Z,50.22
2022-12-03T18:31:14.667Z,47.33
2022-12-03T18:33:42.839Z,47.83
2022-12-03T18:36:26.681Z,82.40
2022-12-03T18:38:55.365Z,172.65
2022-12-03T18:41:25.532Z,93.72
2022-12-03T18:43:52.975Z,58.40
2022-12-03T18:49:08.754Z,48.30
2022-12-03T18:51:36.180Z,47.40
2022-12-03T18:54:03.156Z,49.83
2022-12-03T18:56:29.898Z,51.17
2022-12-03T18:58:56.698Z,47.83
2022-12-03T19:01:23.691Z,48.73
2022-12-03T19:03:50.615Z,51.22
2022-12-03T19:06:19.531Z,55.17
2022-12-03T19:08:48.931Z,58.05
2022-12-03T19:11:15.848Z,54.72
2022-12-03T19:13:43.094Z,55.70
2022-12-03T19:16:12.091Z,51.92
2022-12-03T19:18:39.361Z,49.78
2022-12-03T19:21:11.633Z,49.33
2022-12-03T19:23:39.454Z,52.30
2022-12-03T19:26:09.158Z,46.53
2022-12-03T19:28:36.344Z,51.08
2022-12-03T19:31:16.353Z,46.40
2022-12-03T19:33:49.258Z,47.78
2022-12-03T19:36:24.838Z,42.42
2022-12-03T19:38:57.318Z,48.60
2022-12-03T19:41:27.899Z,37.47
2022-12-03T19:43:56.215Z,40.72
2022-12-03T19:46:24.554Z,36.10
2022-12-03T19:48:51.482Z,37.28
2022-12-03T19:51:35.344Z,39.63
2022-12-03T19:54:07.651Z,40.65
2022-12-03T19:56:34.856Z,42.38
2022-12-03T19:59:02.036Z,43.88
2022-12-03T20:01:31.551Z,34.03
2022-12-03T20:04:00.153Z,37.55
2022-12-03T20:06:33.155Z,30.60
2022-12-03T20:09:11.998Z,32.92
2022-12-03T20:11:40.785Z,31.30
2022-12-03T20:14:11.066Z,32.75
2022-12-03T20:16:37.959Z,31.05
2022-12-03T20:19:07.193Z,33.13
2022-12-03T20:21:36.330Z,27.85
2022-12-03T20:24:04.551Z,26.83
2022-12-03T20:26:32.279Z,32.70
2022-12-03T20:31:28.563Z,32.03
2022-12-03T20:33:58.892Z,29.23
2022-12-03T20:36:26.572Z,31.38
2022-12-03T20:41:21.391Z,25.42
2022-12-03T20:43:48.434Z,30.52
2022-12-03T20:46:27.581Z,32.03
2022-12-03T20:48:55.133Z,31.20
2022-12-03T20:51:28.033Z,31.00
2022-12-03T20:53:55.714Z,32.25
2022-12-03T20:58:51.452Z,30.03
2022-12-03T21:01:26.725Z,35.45
2022-12-03T21:03:55.464Z,29.60
2022-12-03T21:06:24.837Z,24.08
2022-12-03T21:08:57.734Z,31.85
2022-12-03T21:11:32.687Z,30.23
2022-12-03T21:14:00.476Z,29.40
2022-12-03T21:17:06.086Z,30.70
2022-12-03T21:19:23.231Z,31.83
2022-12-03T21:21:50.212Z,38.05
2022-12-03T21:24:16.927Z,33.97
2022-12-03T21:26:43.715Z,36.88
2022-12-03T21:29:18.301Z,29.65
2022-12-03T21:31:47.632Z,32.75
2022-12-03T21:34:14.655Z,36.30
2022-12-03T21:36:41.333Z,37.80
2022-12-03T21:39:08.456Z,38.30
2022-12-03T21:41:36.745Z,36.83
2022-12-03T21:44:04.308Z,41.10
2022-12-03T21:47:12.462Z,41.22
2022-12-03T21:49:19.403Z,35.55
2022-12-03T21:51:46.540Z,53.00
2022-12-03T21:54:13.406Z,39.58
2022-12-03T21:56:40.262Z,40.72
2022-12-03T21:59:06.922Z,41.60
2022-12-03T22:01:36.020Z,38.45
2022-12-03T22:04:02.839Z,42.33
2022-12-03T22:06:29.586Z,53.83
2022-12-03T22:08:56.312Z,40.63
2022-12-03T22:11:23.851Z,50.30
2022-12-03T22:13:51.401Z,47.10
2022-12-03T22:16:20.491Z,43.88
2022-12-03T22:18:50.195Z,42.15
2022-12-03T22:21:19.257Z,40.05
2022-12-03T22:23:46.520Z,43.20
2022-12-03T22:26:16.915Z,40.25
2022-12-03T22:28:48.422Z,40.83
2022-12-03T22:31:16.469Z,49.97
2022-12-03T22:33:45.612Z,42.88
2022-12-03T22:36:18.305Z,42.90
2022-12-03T22:38:47.368Z,44.38
2022-12-03T22:41:16.198Z,52.30
2022-12-03T22:43:43.312Z,43.92
2022-12-03T22:46:12.531Z,45.45
2022-12-03T22:48:40.579Z,64.50
2022-12-03T22:53:41.347Z,48.33
2022-12-03T22:56:08.084Z,48.05
2022-12-03T22:58:36.858Z,49.07
2022-12-03T23:01:03.861Z,50.63
2022-12-03T23:03:30.742Z,58.10
2022-12-03T23:05:57.426Z,52.85
2022-12-03T23:08:25.219Z,48.65
2022-12-03T23:10:53.127Z,63.05
2022-12-03T23:13:20.704Z,59.33
2022-12-03T23:15:52.664Z,43.42
2022-12-03T23:18:20.123Z,53.10
2022-12-03T23:20:51.020Z,49.30
2022-12-03T23:23:19.806Z,71.50
2022-12-03T23:26:05.190Z,57.67
2022-12-03T23:28:33.892Z,53.33
2022-12-03T23:31:05.627Z,55.65
2022-12-03T23:33:37.974Z,125.68
2022-12-03T23:36:10.572Z,86.10
2022-12-03T23:38:38.173Z,89.00
2022-12-03T23:41:06.212Z,69.25
2022-12-03T23:43:33.176Z,109.78
2022-12-03T23:46:12.004Z,71.85
2022-12-03T23:48:39.309Z,76.10
2022-12-03T23:51:07.963Z,100.10
2022-12-03T23:53:35.657Z,102.43
2022-12-03T23:58:36.079Z,65.45
